Terminal Aerodrome Forecast
Issued by NWS Twin Cities, MN

Home | Current Version | Previous Version | Graphics & Text | Print | Product List | Glossary On
Versions: 1 2 3 4 5 6 7 8 9 10 11 12 13 14 15 16 17 18 19 20 21 22 23 24 25 26 27 28 29 30 31 32 33 34 35
000
FTUS43 KMPX 302000 AAA
TAFMSP
TAF AMD
KMSP 302046Z 3021/3124 03005KT P6SM SCT030 BKN080
     FM310000 VRB04KT P6SM SCT025
     FM311200 14008KT P6SM FEW110
     FM311800 16015G22KT P6SM SCT050 BKN090 PROB30 3121/3124 TSRA
      BKN050CB=

USA.gov is the U.S. government's official web portal to all federal, state and local government web resources and services.